St Pete Beach, Florida
Current Conditions -  °F | °C
As of 6:53 PM on Friday 24 Oct 2014 (Local Time) from KSPG Reporting Station
Few Clouds Few Clouds  
Wind Chill: 74°   Ceiling: Unl
Heat Index: 74°   Visibility: 10mi
Dew Point: 59°   Wind: 13mph
Humidity: 59%   Direction: 350°N
Pressure: 29.88"   Gusts: NA
Location:  27.7426°N, 82.7481°W
Report Text: KSPG 242253Z 35011KT 10SM FEW049 23/15 A2988 RMK AO2 SLP118 T02330150
Loading
Personal Weather Stations






























Interactive Weather Map
Tropical Storm Tracking
New forecast layout! Learn more

10-Day Weather Forecast

Advertisements
Track Severe Weather on mobile